Time;durP1;ratioP1;P1;durP2;ratioP2;P2;SDS_P1;SDS_P2;PMS_P1;PMS_P2;Temp;Humidity;BMP_temperature;BMP_pressure;BME280_temperature;BME280_humidity;BME280_pressure;Samples;Min_cycle;Max_cycle;Signal;HPM_P1;HPM_P2
2022/03/07 00:02:21;;;;;;;8.90;7.60;;;2.60;99.90;;;;;;6111433;23;20641;-94
2022/03/07 00:04:46;;;;;;;11.40;7.77;;;2.60;99.90;;;;;;6106251;23;20167;-94
2022/03/07 00:07:12;;;;;;;10.10;7.33;;;2.60;99.90;;;;;;6104041;23;20159;-93
2022/03/07 00:09:38;;;;;;;8.87;7.00;;;2.60;99.90;;;;;;6103209;23;20156;-94
2022/03/07 00:12:06;;;;;;;8.57;6.20;;;2.60;99.90;;;;;;6103278;23;20475;-93
2022/03/07 00:14:33;;;;;;;9.73;6.90;;;2.50;99.90;;;;;;6105175;23;20174;-93
2022/03/07 00:16:59;;;;;;;10.93;7.07;;;2.50;99.90;;;;;;6107845;23;20136;-95
2022/03/07 00:19:24;;;;;;;8.97;7.10;;;2.50;99.90;;;;;;6120344;23;20150;-92
2022/03/07 00:21:53;;;;;;;8.93;7.10;;;2.40;99.90;;;;;;6112978;23;20188;-94
2022/03/07 00:24:19;;;;;;;8.27;7.40;;;2.70;99.90;;;;;;6107646;23;20144;-92
2022/03/07 00:26:45;;;;;;;9.53;7.13;;;2.40;99.90;;;;;;6114192;23;20147;-91
2022/03/07 00:29:11;;;;;;;9.53;7.17;;;2.40;99.90;;;;;;6124593;23;20195;-93
2022/03/07 00:31:37;;;;;;;9.90;7.43;;;2.40;99.90;;;;;;6125150;23;20143;-90
2022/03/07 00:34:02;;;;;;;11.40;7.93;;;2.40;99.90;;;;;;6124938;23;20167;-92
2022/03/07 00:36:28;;;;;;;11.03;8.10;;;2.40;99.90;;;;;;6124920;23;20184;-90
2022/03/07 00:38:57;;;;;;;8.57;7.67;;;2.30;99.90;;;;;;6117987;23;20156;-92
2022/03/07 00:41:23;;;;;;;12.27;7.47;;;2.40;99.90;;;;;;6105821;23;20516;-93
2022/03/07 00:43:56;;;;;;;10.33;7.10;;;2.20;1.00;;;;;;6105283;23;20151;-92
2022/03/07 00:46:22;;;;;;;9.33;7.73;;;2.20;1.00;;;;;;6118849;23;20152;-93
2022/03/07 00:48:48;;;;;;;10.77;7.43;;;2.20;1.00;;;;;;6111151;23;20231;-93
2022/03/07 00:51:13;;;;;;;8.50;7.10;;;2.20;1.00;;;;;;6107549;23;20156;-93
2022/03/07 00:53:42;;;;;;;11.23;7.37;;;2.10;1.00;;;;;;6102781;23;20203;-93
2022/03/07 00:56:10;;;;;;;8.50;6.70;;;2.10;1.00;;;;;;6104608;23;20465;-92
2022/03/07 00:58:36;;;;;;;11.67;8.23;;;2.00;1.00;;;;;;6116029;23;20162;-93
2022/03/07 01:01:30;;;;;;;9.53;7.03;;;2.00;1.00;;;;;;6106746;23;20640;-93
2022/03/07 01:04:03;;;;;;;12.70;7.80;;;2.00;1.00;;;;;;6118215;23;20156;-93
2022/03/07 01:06:28;;;;;;;8.70;7.50;;;1.90;1.00;;;;;;6088508;23;20560;-93
2022/03/07 01:08:56;;;;;;;9.67;8.30;;;2.00;1.00;;;;;;6104376;23;20202;-92
2022/03/07 01:11:21;;;;;;;9.40;7.87;;;2.00;1.00;;;;;;6102474;23;20151;-94
2022/03/07 01:13:47;;;;;;;11.20;7.63;;;2.00;1.00;;;;;;6102068;23;20160;-94
2022/03/07 01:16:13;;;;;;;12.07;8.00;;;2.00;1.00;;;;;;6107683;23;20179;-95
2022/03/07 01:18:38;;;;;;;11.40;8.20;;;2.00;1.00;;;;;;6120564;23;20183;-92
2022/03/07 01:21:05;;;;;;;10.40;7.93;;;2.00;1.00;;;;;;6123947;23;20144;-92
2022/03/07 01:23:31;;;;;;;9.70;8.10;;;1.90;1.00;;;;;;6125848;23;20159;-92
2022/03/07 01:25:57;;;;;;;10.63;7.93;;;1.90;1.00;;;;;;6120026;23;20156;-94
2022/03/07 01:28:25;;;;;;;10.30;7.97;;;1.90;1.00;;;;;;6112324;23;20204;-94
2022/03/07 01:30:51;;;;;;;11.73;8.53;;;1.90;1.00;;;;;;6102077;23;20148;-94
2022/03/07 01:33:16;;;;;;;11.37;8.50;;;1.80;1.00;;;;;;6102537;23;20494;-90
2022/03/07 01:35:42;;;;;;;10.07;8.33;;;1.80;1.00;;;;;;6101316;23;20163;-94
2022/03/07 01:38:08;;;;;;;11.60;8.20;;;1.80;1.00;;;;;;6079453;23;20176;-94
2022/03/07 01:40:35;;;;;;;11.80;7.60;;;1.90;1.00;;;;;;6105651;23;20155;-92
2022/03/07 01:43:02;;;;;;;9.40;7.23;;;1.70;1.00;;;;;;6096530;23;20163;-94
2022/03/07 01:45:27;;;;;;;11.17;7.83;;;1.60;1.00;;;;;;6123880;23;20143;-91
2022/03/07 01:47:56;;;;;;;13.13;8.60;;;1.60;1.00;;;;;;6124068;23;20186;-91
2022/03/07 01:50:26;;;;;;;10.40;8.10;;;1.40;1.00;;;;;;6113445;23;20235;-93
2022/03/07 01:52:53;;;;;;;11.00;8.07;;;1.50;1.00;;;;;;6114775;23;20170;-93
2022/03/07 01:55:21;;;;;;;11.97;7.70;;;1.70;1.00;;;;;;6123003;23;20146;-91
2022/03/07 01:57:49;;;;;;;11.53;8.80;;;1.50;1.00;;;;;;6121768;23;20167;-91
2022/03/07 02:00:18;;;;;;;12.57;8.23;;;1.50;1.00;;;;;;6114696;23;20585;-94
2022/03/07 02:02:45;;;;;;;9.97;8.37;;;1.40;1.00;;;;;;6103993;23;20159;-94
2022/03/07 02:05:19;;;;;;;12.10;8.37;;;1.50;1.00;;;;;;6105090;23;20155;-88
2022/03/07 02:07:45;;;;;;;11.07;8.80;;;1.50;1.00;;;;;;6101886;23;20277;-93
2022/03/07 02:10:11;;;;;;;11.50;8.87;;;1.50;1.00;;;;;;6102060;23;20160;-93
2022/03/07 02:12:39;;;;;;;9.97;8.30;;;1.40;1.00;;;;;;6101491;23;20166;-94
2022/03/07 02:15:07;;;;;;;11.87;8.80;;;1.40;1.00;;;;;;6103114;23;20160;-93
2022/03/07 02:17:33;;;;;;;9.57;8.20;;;1.50;1.00;;;;;;6103636;23;20156;-93
2022/03/07 02:19:59;;;;;;;13.17;8.77;;;1.50;1.00;;;;;;6104137;23;20226;-93
2022/03/07 02:22:24;;;;;;;10.97;8.73;;;1.50;1.00;;;;;;6118095;23;20163;-91
2022/03/07 02:24:51;;;;;;;10.40;8.57;;;1.40;1.00;;;;;;6121650;23;20188;-91
2022/03/07 02:27:18;;;;;;;10.60;8.13;;;1.40;1.00;;;;;;6112814;23;20164;-93
2022/03/07 02:29:48;;;;;;;13.30;8.33;;;1.40;1.00;;;;;;6107473;23;20198;-94
2022/03/07 02:32:17;;;;;;;14.50;8.63;;;1.40;1.00;;;;;;6106348;23;20148;-94
2022/03/07 02:34:46;;;;;;;11.30;8.90;;;1.40;1.00;;;;;;6107297;23;20148;-91
2022/03/07 02:37:11;;;;;;;16.10;7.87;;;1.30;1.00;;;;;;6115545;23;20171;-93
2022/03/07 02:39:37;;;;;;;11.57;8.83;;;1.30;1.00;;;;;;6100368;23;20666;-93
2022/03/07 02:42:03;;;;;;;12.40;8.60;;;1.30;1.00;;;;;;6104128;23;20152;-93
2022/03/07 02:44:30;;;;;;;11.00;9.87;;;1.30;1.00;;;;;;6105581;23;20156;-93
2022/03/07 02:46:56;;;;;;;12.30;9.40;;;1.30;1.00;;;;;;6104681;23;20148;-93
2022/03/07 02:49:22;;;;;;;10.67;8.83;;;1.20;1.00;;;;;;6103668;23;20214;-93
2022/03/07 02:51:48;;;;;;;12.13;8.17;;;1.20;1.00;;;;;;6101328;23;20188;-94
2022/03/07 02:54:16;;;;;;;10.40;8.03;;;1.20;1.00;;;;;;6102244;23;20155;-94
2022/03/07 02:56:41;;;;;;;10.03;8.73;;;1.20;1.00;;;;;;6102544;23;20176;-93
2022/03/07 02:59:07;;;;;;;10.03;8.47;;;1.20;1.00;;;;;;6100778;23;20593;-93
2022/03/07 03:01:33;;;;;;;10.17;8.77;;;1.30;1.00;;;;;;6102048;23;20158;-93
2022/03/07 03:03:58;;;;;;;10.90;8.10;;;1.20;1.00;;;;;;6104678;23;20136;-92
2022/03/07 03:06:24;;;;;;;10.73;9.37;;;1.30;1.00;;;;;;6121312;23;20640;-92
2022/03/07 03:08:52;;;;;;;11.93;9.40;;;1.30;1.00;;;;;;6104833;23;20191;-93
2022/03/07 03:11:18;;;;;;;10.17;7.60;;;1.30;1.00;;;;;;6100654;23;20156;-94
2022/03/07 03:13:44;;;;;;;11.20;8.70;;;1.30;1.00;;;;;;6100784;23;20171;-92
2022/03/07 03:16:11;;;;;;;10.43;8.20;;;1.30;1.00;;;;;;6101325;23;20657;-92
2022/03/07 03:18:37;;;;;;;12.10;8.67;;;1.30;1.00;;;;;;6101148;23;20216;-92
2022/03/07 03:21:03;;;;;;;10.83;9.23;;;1.20;1.00;;;;;;6101093;23;20167;-93
2022/03/07 03:23:29;;;;;;;13.00;9.10;;;1.20;1.00;;;;;;6099460;23;20237;-92
2022/03/07 03:25:55;;;;;;;13.43;9.83;;;1.20;1.00;;;;;;6119154;23;20187;-90
2022/03/07 03:28:23;;;;;;;10.20;8.50;;;1.20;1.00;;;;;;6123999;23;20198;-92
2022/03/07 03:30:53;;;;;;;10.77;8.77;;;1.20;1.00;;;;;;6110767;23;20155;-94
2022/03/07 03:33:19;;;;;;;12.87;9.60;;;1.10;1.00;;;;;;6103494;23;20186;-93
2022/03/07 03:35:44;;;;;;;11.37;9.03;;;1.20;1.00;;;;;;6102493;23;20152;-94
2022/03/07 03:38:10;;;;;;;12.17;9.60;;;1.20;1.00;;;;;;6100738;23;20258;-93
2022/03/07 03:40:38;;;;;;;11.47;8.97;;;1.20;1.00;;;;;;6102128;23;20156;-94
2022/03/07 03:43:04;;;;;;;10.13;8.20;;;1.20;1.00;;;;;;6103114;23;20536;-94
2022/03/07 03:45:30;;;;;;;10.90;8.67;;;1.10;1.00;;;;;;6103530;23;20185;-93
2022/03/07 03:47:57;;;;;;;10.80;8.53;;;1.00;1.00;;;;;;6105778;23;20191;-93
2022/03/07 03:50:23;;;;;;;12.63;8.73;;;1.00;1.00;;;;;;6105049;23;20178;-94
2022/03/07 03:52:48;;;;;;;12.10;9.13;;;1.00;1.00;;;;;;6108576;23;20474;-94
2022/03/07 03:55:16;;;;;;;11.03;7.47;;;1.00;1.00;;;;;;6108839;23;20490;-93
2022/03/07 03:57:43;;;;;;;10.37;8.53;;;1.00;1.00;;;;;;6121359;23;20140;-90
2022/03/07 04:00:12;;;;;;;11.00;8.73;;;0.90;1.00;;;;;;6125918;23;20136;-91
2022/03/07 04:02:39;;;;;;;10.47;8.80;;;0.90;1.00;;;;;;6123597;23;20188;-93
2022/03/07 04:05:08;;;;;;;12.57;8.90;;;0.90;1.00;;;;;;6122737;23;20159;-93
2022/03/07 04:07:35;;;;;;;12.40;9.43;;;0.90;1.00;;;;;;6115324;23;20208;-94
2022/03/07 04:10:01;;;;;;;15.27;9.47;;;1.00;1.00;;;;;;6103173;23;20166;-94
2022/03/07 04:12:30;;;;;;;10.83;8.90;;;1.00;1.00;;;;;;6104215;23;20168;-92
2022/03/07 04:14:56;;;;;;;9.80;8.33;;;1.00;1.00;;;;;;6118293;23;20159;-90
2022/03/07 04:17:25;;;;;;;9.83;8.23;;;1.00;1.00;;;;;;6113714;23;20629;-93
2022/03/07 04:19:51;;;;;;;11.43;8.80;;;1.00;1.00;;;;;;6112964;23;20164;-94
2022/03/07 04:22:18;;;;;;;16.70;8.70;;;0.90;1.00;;;;;;6119551;23;20215;-95
2022/03/07 04:24:44;;;;;;;11.00;8.93;;;1.00;1.00;;;;;;6108563;23;20160;-96
2022/03/07 04:27:10;;;;;;;11.73;9.10;;;0.90;1.00;;;;;;6110745;23;20212;-92
2022/03/07 04:29:35;;;;;;;12.47;9.23;;;0.90;1.00;;;;;;6120390;23;20211;-95
2022/03/07 04:32:01;;;;;;;12.43;9.10;;;0.90;1.00;;;;;;6121817;23;20159;-92
2022/03/07 04:34:28;;;;;;;15.17;9.87;;;0.90;1.00;;;;;;6126145;23;20232;-92
2022/03/07 04:36:54;;;;;;;11.00;9.07;;;0.80;1.00;;;;;;6093527;23;20193;-93
2022/03/07 04:39:21;;;;;;;10.87;9.43;;;0.80;1.00;;;;;;6119673;23;20155;-92
2022/03/07 04:41:49;;;;;;;11.33;9.43;;;0.90;1.00;;;;;;6119401;23;20167;-95
2022/03/07 04:44:16;;;;;;;12.53;9.67;;;0.80;1.00;;;;;;6107721;23;20168;-94
2022/03/07 04:46:42;;;;;;;13.23;9.07;;;0.80;1.00;;;;;;6114133;23;20183;-94
2022/03/07 04:49:10;;;;;;;11.40;9.70;;;0.80;1.00;;;;;;6121747;23;20195;-95
2022/03/07 04:51:36;;;;;;;24.77;11.50;;;0.80;1.00;;;;;;6121859;23;20176;-94
2022/03/07 04:54:01;;;;;;;12.27;9.07;;;0.80;1.00;;;;;;6110332;23;20159;-93
2022/03/07 04:56:28;;;;;;;17.03;9.63;;;0.70;1.00;;;;;;6106741;23;20152;-93
2022/03/07 04:58:56;;;;;;;11.63;8.90;;;0.70;1.00;;;;;;6101907;23;20144;-95
2022/03/07 05:01:22;;;;;;;12.57;10.07;;;0.70;1.00;;;;;;6101898;23;20155;-94
2022/03/07 05:03:48;;;;;;;14.30;10.17;;;0.70;1.00;;;;;;6102403;23;20206;-93
2022/03/07 05:06:13;;;;;;;15.27;10.93;;;0.90;1.00;;;;;;6101208;23;20172;-93
2022/03/07 05:08:39;;;;;;;14.50;10.70;;;0.80;1.00;;;;;;6100979;23;20191;-94
2022/03/07 05:11:05;;;;;;;14.57;9.90;;;0.80;1.00;;;;;;6101622;23;20152;-94
2022/03/07 05:13:32;;;;;;;14.30;10.73;;;0.70;1.00;;;;;;6102613;23;20214;-93
2022/03/07 05:15:59;;;;;;;14.40;10.27;;;0.70;1.00;;;;;;6104113;23;20210;-94
2022/03/07 05:18:26;;;;;;;13.10;9.83;;;0.80;1.00;;;;;;6102667;23;20164;-94
2022/03/07 05:20:52;;;;;;;13.97;11.30;;;0.70;1.00;;;;;;6102813;23;20140;-94
2022/03/07 05:23:17;;;;;;;13.40;9.73;;;0.80;1.00;;;;;;6102099;23;20198;-94
2022/03/07 05:25:43;;;;;;;15.97;10.77;;;0.80;1.00;;;;;;6101869;23;20243;-93
2022/03/07 05:28:09;;;;;;;13.53;9.87;;;0.70;1.00;;;;;;6102220;23;20195;-93
2022/03/07 05:30:35;;;;;;;14.90;9.77;;;0.60;1.00;;;;;;6102554;23;20148;-93
2022/03/07 05:33:01;;;;;;;16.93;11.30;;;0.60;1.00;;;;;;6105604;23;20155;-93
2022/03/07 05:35:29;;;;;;;15.07;10.87;;;0.60;1.00;;;;;;6115527;23;20163;-91
2022/03/07 05:37:55;;;;;;;15.40;10.73;;;0.60;1.00;;;;;;6106972;23;20187;-94
2022/03/07 05:40:21;;;;;;;14.47;10.57;;;0.60;1.00;;;;;;6104967;23;20146;-94
2022/03/07 05:42:47;;;;;;;19.47;12.53;;;0.60;1.00;;;;;;6114948;23;20152;-91
2022/03/07 05:45:13;;;;;;;15.63;11.53;;;0.60;1.00;;;;;;6123323;23;20168;-92
2022/03/07 05:47:41;;;;;;;18.57;11.30;;;0.70;1.00;;;;;;6121034;23;20176;-92
2022/03/07 05:50:08;;;;;;;14.10;11.20;;;0.70;1.00;;;;;;6104651;23;20657;-93
2022/03/07 05:52:35;;;;;;;17.40;11.57;;;0.80;1.00;;;;;;6102145;23;20283;-93
2022/03/07 05:55:06;;;;;;;15.73;11.27;;;0.90;1.00;;;;;;6103827;23;20156;-93
2022/03/07 05:57:32;;;;;;;14.47;11.30;;;0.90;1.00;;;;;;6096814;23;20163;-92
2022/03/07 05:59:58;;;;;;;18.37;12.00;;;0.90;1.00;;;;;;6124677;23;20152;-92
2022/03/07 06:02:24;;;;;;;16.47;12.13;;;0.90;1.00;;;;;;6118843;23;20171;-92
2022/03/07 06:04:50;;;;;;;14.53;11.70;;;0.90;1.00;;;;;;6112496;23;20215;-93
2022/03/07 06:07:16;;;;;;;14.87;12.40;;;0.90;1.00;;;;;;6086069;23;20178;-93
2022/03/07 06:09:41;;;;;;;14.57;12.20;;;0.80;1.00;;;;;;6103250;23;20238;-91
2022/03/07 06:12:08;;;;;;;16.20;11.87;;;0.80;1.00;;;;;;6102408;23;20152;-93
2022/03/07 06:14:33;;;;;;;15.00;11.30;;;0.80;1.00;;;;;;6107707;23;20178;-92
2022/03/07 06:16:59;;;;;;;14.73;11.33;;;0.90;1.00;;;;;;6101743;23;20140;-93
2022/03/07 06:19:24;;;;;;;16.60;11.50;;;0.70;1.00;;;;;;6102362;23;20191;-91
2022/03/07 06:21:55;;;;;;;13.87;10.97;;;0.70;1.00;;;;;;6101785;23;20156;-94
2022/03/07 06:24:21;;;;;;;14.30;10.57;;;0.70;1.00;;;;;;6100927;23;20207;-90
2022/03/07 06:26:46;;;;;;;16.23;11.60;;;0.70;1.00;;;;;;6102410;23;20191;-92
2022/03/07 06:29:12;;;;;;;16.50;12.53;;;0.60;1.00;;;;;;6104336;23;20194;-92
2022/03/07 06:31:38;;;;;;;15.07;11.63;;;0.60;1.00;;;;;;6122219;23;20188;-91
2022/03/07 06:34:06;;;;;;;16.60;12.37;;;0.60;1.00;;;;;;6110996;23;20160;-90
2022/03/07 06:36:31;;;;;;;17.73;12.93;;;0.70;1.00;;;;;;6120035;23;20174;-91
2022/03/07 06:38:57;;;;;;;16.87;12.93;;;0.60;1.00;;;;;;6108381;23;20183;-90
2022/03/07 06:41:23;;;;;;;15.00;11.60;;;0.60;1.00;;;;;;6105232;23;20152;-89
2022/03/07 06:43:49;;;;;;;21.50;12.80;;;0.60;1.00;;;;;;6112484;23;20148;-89
2022/03/07 06:46:14;;;;;;;17.40;12.30;;;0.60;1.00;;;;;;6089668;23;20159;-90
2022/03/07 06:48:40;;;;;;;15.37;11.80;;;0.60;1.00;;;;;;6102102;23;20183;-92
2022/03/07 06:51:06;;;;;;;19.70;12.63;;;0.60;1.00;;;;;;6100986;23;20159;-90
2022/03/07 06:53:35;;;;;;;14.83;11.67;;;0.70;1.00;;;;;;6101556;23;20158;-92
2022/03/07 06:56:01;;;;;;;16.60;12.00;;;0.70;1.00;;;;;;6102998;23;20641;-93
2022/03/07 06:58:28;;;;;;;17.60;13.23;;;0.70;1.00;;;;;;6101931;23;20159;-90
2022/03/07 07:00:54;;;;;;;15.30;12.00;;;0.70;1.00;;;;;;6104800;23;20151;-91
2022/03/07 07:03:20;;;;;;;16.07;12.33;;;0.70;1.00;;;;;;6103825;23;20152;-94
2022/03/07 07:05:46;;;;;;;16.63;12.43;;;0.70;1.00;;;;;;6099516;23;20154;-93
2022/03/07 07:08:12;;;;;;;15.37;12.40;;;0.80;1.00;;;;;;6119178;23;20195;-91
2022/03/07 07:10:40;;;;;;;17.27;13.70;;;0.80;1.00;;;;;;6110702;23;20234;-90
2022/03/07 07:13:12;;;;;;;15.77;12.10;;;0.80;1.00;;;;;;6109296;23;20167;-93
2022/03/07 07:15:38;;;;;;;17.40;13.20;;;0.70;1.00;;;;;;6105260;23;20238;-92
2022/03/07 07:18:08;;;;;;;15.73;12.03;;;0.80;1.00;;;;;;6109276;23;20151;-90
2022/03/07 07:20:37;;;;;;;18.13;13.63;;;0.80;1.00;;;;;;6109835;23;20132;-90
2022/03/07 07:23:10;;;;;;;19.47;12.60;;;0.80;1.00;;;;;;6060667;23;20155;-91
2022/03/07 07:25:36;;;;;;;16.53;11.83;;;0.90;1.00;;;;;;6093965;23;20144;-90
2022/03/07 07:28:04;;;;;;;16.33;12.63;;;1.00;1.00;;;;;;6121431;23;20195;-90
2022/03/07 07:30:29;;;;;;;14.07;10.70;;;0.80;1.00;;;;;;6119592;23;20187;-89
2022/03/07 07:32:56;;;;;;;14.33;11.97;;;1.00;1.00;;;;;;6115393;23;20151;-92
2022/03/07 07:35:23;;;;;;;14.90;11.20;;;1.10;1.00;;;;;;6109801;23;20156;-93
2022/03/07 07:37:50;;;;;;;14.67;11.13;;;1.00;1.00;;;;;;6103911;23;20203;-93
2022/03/07 07:40:16;;;;;;;12.00;10.43;;;1.10;1.00;;;;;;6103896;23;20171;-91
2022/03/07 07:42:45;;;;;;;12.83;10.17;;;1.10;99.90;;;;;;6102321;23;20143;-93
2022/03/07 07:45:12;;;;;;;13.80;10.47;;;1.20;99.90;;;;;;6106319;23;20173;-93
2022/03/07 07:47:38;;;;;;;14.13;9.67;;;1.20;99.90;;;;;;6107385;23;20275;-93
2022/03/07 07:50:05;;;;;;;13.57;11.50;;;1.40;99.90;;;;;;6098690;23;20470;-91
2022/03/07 07:52:31;;;;;;;15.47;11.37;;;1.30;99.90;;;;;;6098277;23;20148;-91
2022/03/07 07:54:56;;;;;;;14.60;9.87;;;1.40;1.00;;;;;;6100220;23;20162;-91
2022/03/07 07:57:22;;;;;;;13.97;10.93;;;1.50;1.00;;;;;;6098739;23;20493;-92
2022/03/07 07:59:48;;;;;;;15.37;9.30;;;1.50;99.90;;;;;;6088051;23;20219;-91
2022/03/07 08:02:13;;;;;;;13.47;9.10;;;1.60;1.00;;;;;;6110540;23;20152;-90
2022/03/07 08:04:39;;;;;;;14.93;8.77;;;1.60;1.00;;;;;;6112679;23;20164;-90
2022/03/07 08:07:06;;;;;;;13.27;9.30;;;1.60;99.90;;;;;;6104292;23;20219;-92
2022/03/07 08:09:34;;;;;;;11.03;9.10;;;1.70;99.90;;;;;;6104009;23;20199;-93
2022/03/07 08:12:00;;;;;;;11.47;8.80;;;1.80;99.90;;;;;;6105919;23;20148;-91
2022/03/07 08:14:28;;;;;;;10.13;8.53;;;1.90;1.00;;;;;;6103955;23;20227;-95
2022/03/07 08:16:54;;;;;;;11.00;8.20;;;2.00;1.00;;;;;;6106439;23;20160;-92
2022/03/07 08:19:20;;;;;;;10.03;7.00;;;2.10;52.30;;;;;;6105648;23;20175;-94
2022/03/07 08:21:46;;;;;;;9.13;6.43;;;2.10;99.90;;;;;;6104530;23;20574;-91
2022/03/07 08:24:11;;;;;;;10.00;7.93;;;2.30;99.90;;;;;;6103640;23;20138;-91
2022/03/07 08:26:38;;;;;;;9.17;7.67;;;2.20;99.90;;;;;;6104472;23;20604;-91
2022/03/07 08:29:05;;;;;;;8.90;7.30;;;2.30;99.90;;;;;;6105773;23;20191;-92
2022/03/07 08:31:32;;;;;;;9.90;6.73;;;2.40;1.00;;;;;;6111453;23;20147;-92
2022/03/07 08:33:58;;;;;;;12.07;6.60;;;2.60;99.90;;;;;;6084233;23;20160;-93
2022/03/07 08:36:26;;;;;;;10.40;6.63;;;2.50;99.90;;;;;;6105780;23;20239;-93
2022/03/07 08:38:52;;;;;;;6.23;5.40;;;2.50;1.00;;;;;;6114453;23;20140;-92
2022/03/07 08:41:18;;;;;;;5.40;4.77;;;2.50;99.90;;;;;;6121542;23;20143;-93
2022/03/07 08:43:45;;;;;;;7.90;5.50;;;2.40;1.00;;;;;;6108573;23;20680;-94
2022/03/07 08:46:12;;;;;;;7.60;5.20;;;2.50;99.90;;;;;;6106744;23;20228;-92
2022/03/07 08:48:37;;;;;;;9.20;5.17;;;2.60;99.90;;;;;;6139762;23;20202;-91
2022/03/07 08:51:03;;;;;;;6.37;4.07;;;2.90;99.90;;;;;;6116047;23;20144;-91
2022/03/07 08:53:29;;;;;;;6.53;4.83;;;3.00;1.00;;;;;;6099071;23;20146;-89
2022/03/07 08:55:54;;;;;;;6.37;4.47;;;2.80;1.00;;;;;;6120971;23;20148;-90
2022/03/07 08:58:24;;;;;;;6.90;5.00;;;2.60;1.00;;;;;;6119890;23;20152;-87
2022/03/07 09:00:50;;;;;;;7.57;4.83;;;2.70;1.00;;;;;;6084068;23;20156;-89
2022/03/07 09:03:16;;;;;;;5.63;5.00;;;2.70;1.00;;;;;;6107018;23;20159;-90
2022/03/07 09:05:42;;;;;;;6.73;4.33;;;2.80;99.90;;;;;;6103796;23;20155;-92
2022/03/07 09:08:09;;;;;;;7.33;4.23;;;2.80;1.00;;;;;;6101069;23;20199;-91
2022/03/07 09:10:36;;;;;;;4.80;4.03;;;2.90;99.90;;;;;;6100339;23;20851;-89
2022/03/07 09:13:02;;;;;;;6.40;4.20;;;2.90;99.90;;;;;;6099507;23;20517;-87
2022/03/07 09:15:28;;;;;;;6.00;3.30;;;2.90;99.90;;;;;;6104571;23;20231;-88
2022/03/07 09:17:53;;;;;;;3.87;3.33;;;3.00;99.90;;;;;;6104016;23;20165;-88
2022/03/07 09:20:19;;;;;;;5.73;3.70;;;3.00;99.90;;;;;;6107910;23;20163;-91
2022/03/07 09:26:30;;;;;;;5.00;3.63;;;3.20;99.90;;;;;;6086924;23;20163;-92
2022/03/07 09:29:13;;;;;;;8.80;4.37;;;3.30;75.90;;;;;;6101380;23;20254;-92
2022/03/07 09:31:45;;;;;;;8.67;3.40;;;3.30;99.90;;;;;;6129073;23;20219;-92
2022/03/07 09:34:32;;;;;;;10.27;4.07;;;3.40;99.90;;;;;;6101343;23;20140;-93
2022/03/07 09:37:32;;;;;;;8.40;4.30;;;3.40;42.10;;;;;;6100426;23;20176;-94
2022/03/07 09:40:04;;;;;;;3.80;3.10;;;3.40;79.40;;;;;;6101234;23;20163;-92
2022/03/07 09:42:32;;;;;;;5.77;3.13;;;3.40;27.60;;;;;;6100082;23;20596;-91
2022/03/07 09:45:01;;;;;;;7.80;3.80;;;3.30;1.00;;;;;;6100197;23;20164;-91
2022/03/07 09:47:29;;;;;;;6.30;4.20;;;3.20;6.70;;;;;;6102669;23;20163;-91
2022/03/07 09:49:58;;;;;;;7.93;4.07;;;3.40;20.90;;;;;;6098346;23;20226;-92
2022/03/07 09:52:24;;;;;;;8.13;4.23;;;3.60;38.60;;;;;;6099351;23;20175;-92
2022/03/07 09:54:50;;;;;;;10.47;4.27;;;3.80;1.80;;;;;;6100795;23;20643;-93
2022/03/07 09:57:16;;;;;;;6.07;4.53;;;3.90;1.00;;;;;;6101756;23;20238;-93
2022/03/07 09:59:42;;;;;;;7.53;4.50;;;4.00;1.00;;;;;;6101276;23;20156;-93
2022/03/07 10:02:12;;;;;;;6.23;3.50;;;4.10;1.00;;;;;;6099936;23;20156;-92
2022/03/07 10:04:45;;;;;;;7.50;3.67;;;4.00;1.00;;;;;;6100020;23;20155;-91
2022/03/07 10:07:11;;;;;;;5.77;4.07;;;3.90;1.00;;;;;;6100609;23;20179;-91
2022/03/07 10:09:37;;;;;;;5.50;4.00;;;3.90;1.00;;;;;;6111359;23;20182;-91
2022/03/07 10:12:03;;;;;;;6.63;4.73;;;4.20;1.00;;;;;;6109440;23;20159;-93
2022/03/07 10:14:42;;;;;;;7.00;4.20;;;3.90;1.00;;;;;;6102094;23;20501;-92
2022/03/07 10:17:31;;;;;;;12.77;4.97;;;3.90;1.00;;;;;;6102246;23;20155;-92
2022/03/07 10:20:01;;;;;;;6.93;4.30;;;3.90;1.00;;;;;;6101472;23;20155;-91
2022/03/07 10:22:28;;;;;;;7.27;4.97;;;3.80;1.00;;;;;;6102254;23;20144;-92
2022/03/07 10:25:08;;;;;;;6.37;4.80;;;3.80;1.00;;;;;;6103810;23;20242;-92
2022/03/07 10:27:44;;;;;;;6.63;4.30;;;3.80;1.00;;;;;;6101802;23;20193;-92
2022/03/07 10:30:11;;;;;;;6.47;4.47;;;3.90;1.00;;;;;;6101735;23;20162;-93
2022/03/07 10:32:37;;;;;;;8.60;5.20;;;3.80;38.60;;;;;;6100931;23;20151;-91
2022/03/07 10:35:07;;;;;;;8.70;5.43;;;3.90;21.10;;;;;;6100228;23;20156;-93
2022/03/07 10:37:39;;;;;;;10.83;4.53;;;4.00;23.00;;;;;;6104434;23;20180;-91
2022/03/07 10:40:18;;;;;;;6.33;4.27;;;4.00;1.00;;;;;;6104867;23;20148;-90
2022/03/07 10:42:45;;;;;;;7.70;4.63;;;3.90;3.70;;;;;;6101465;23;20219;-92
2022/03/07 10:45:11;;;;;;;7.37;4.80;;;3.90;30.70;;;;;;6104144;23;20172;-91
2022/03/07 10:47:38;;;;;;;5.77;5.10;;;4.10;37.00;;;;;;6099719;23;20195;-91
2022/03/07 10:50:05;;;;;;;5.87;3.73;;;4.20;25.00;;;;;;6110024;23;20150;-93
2022/03/07 10:52:41;;;;;;;5.27;4.43;;;4.20;1.00;;;;;;6104142;23;20174;-92
2022/03/07 10:55:11;;;;;;;7.40;4.80;;;4.30;1.00;;;;;;6101012;23;20648;-92
2022/03/07 10:57:41;;;;;;;5.77;4.57;;;4.30;1.00;;;;;;6098008;23;20163;-92
2022/03/07 11:00:13;;;;;;;5.60;4.47;;;4.30;1.00;;;;;;6099735;23;20180;-91
2022/03/07 11:02:43;;;;;;;6.03;4.27;;;4.60;1.00;;;;;;6106915;23;20156;-91
2022/03/07 11:05:11;;;;;;;7.67;4.70;;;4.60;1.00;;;;;;6106288;23;20151;-90
2022/03/07 11:07:39;;;;;;;7.37;5.20;;;4.60;1.00;;;;;;6101616;23;20194;-90
2022/03/07 11:10:11;;;;;;;4.90;4.10;;;4.60;1.00;;;;;;6100832;23;20154;-91
2022/03/07 11:12:37;;;;;;;6.93;4.33;;;4.50;1.00;;;;;;6109055;23;20138;-91
2022/03/07 11:15:12;;;;;;;6.23;4.10;;;4.60;1.00;;;;;;6120102;23;20176;-88
2022/03/07 11:17:43;;;;;;;5.00;4.50;;;4.60;1.00;;;;;;6105157;23;20246;-88
2022/03/07 11:20:17;;;;;;;6.07;4.37;;;4.90;1.00;;;;;;6101260;23;20144;-91
2022/03/07 11:22:43;;;;;;;8.97;4.90;;;4.90;1.00;;;;;;6101039;23;20156;-91
2022/03/07 11:25:16;;;;;;;4.43;4.03;;;5.10;1.00;;;;;;6100894;23;20673;-91
2022/03/07 11:27:43;;;;;;;6.63;4.37;;;5.00;1.00;;;;;;6106625;23;20179;-92
2022/03/07 11:30:18;;;;;;;5.50;4.60;;;4.90;1.00;;;;;;6106257;23;20162;-92
2022/03/07 11:32:44;;;;;;;7.50;5.00;;;4.90;1.00;;;;;;6111904;23;20158;-92
2022/03/07 11:35:13;;;;;;;5.67;4.80;;;5.10;1.00;;;;;;6122237;23;20147;-93
2022/03/07 11:37:49;;;;;;;6.37;5.07;;;4.90;1.00;;;;;;6113201;23;20254;-93
2022/03/07 11:40:24;;;;;;;5.97;5.23;;;5.20;1.00;;;;;;6131971;23;20613;-91
2022/03/07 11:42:50;;;;;;;5.90;4.50;;;5.10;1.00;;;;;;6112139;23;20155;-91
2022/03/07 11:45:21;;;;;;;5.70;4.77;;;5.10;1.00;;;;;;6103097;23;20163;-93
2022/03/07 11:47:50;;;;;;;5.50;4.30;;;5.00;1.00;;;;;;6102798;23;20235;-91
2022/03/07 11:50:22;;;;;;;5.93;4.80;;;5.00;1.00;;;;;;6107952;23;20155;-93
2022/03/07 11:52:49;;;;;;;6.90;5.23;;;5.10;1.00;;;;;;6115307;23;20187;-93
2022/03/07 11:55:22;;;;;;;8.20;4.30;;;5.30;1.00;;;;;;6109175;23;20164;-95
2022/03/07 11:57:59;;;;;;;7.17;4.70;;;5.50;1.00;;;;;;6105033;23;20179;-94
2022/03/07 12:00:31;;;;;;;6.87;4.40;;;5.50;1.00;;;;;;6105705;23;20151;-94
2022/03/07 12:03:00;;;;;;;5.43;4.30;;;5.20;1.00;;;;;;6115757;23;20175;-93
2022/03/07 12:05:32;;;;;;;8.10;4.73;;;5.20;1.00;;;;;;6113414;23;20191;-92
2022/03/07 12:08:08;;;;;;;8.07;4.87;;;5.40;1.00;;;;;;6117580;23;20278;-95
2022/03/07 12:10:58;;;;;;;6.43;4.63;;;5.20;1.00;;;;;;6118663;23;20160;-92
2022/03/07 12:13:27;;;;;;;6.30;4.57;;;5.50;1.00;;;;;;6109154;23;20136;-93
2022/03/07 12:15:59;;;;;;;6.57;4.50;;;5.60;1.00;;;;;;6083757;23;20586;-94
2022/03/07 12:18:27;;;;;;;6.67;4.03;;;5.60;1.00;;;;;;6083382;23;20211;-95
2022/03/07 12:20:57;;;;;;;6.40;4.30;;;5.60;1.00;;;;;;6105431;23;20388;-94
2022/03/07 12:23:30;;;;;;;8.53;4.90;;;5.50;1.00;;;;;;6105783;23;20144;-93
2022/03/07 12:26:04;;;;;;;14.17;6.10;;;5.50;1.00;;;;;;6107252;23;20187;-94
2022/03/07 12:28:32;;;;;;;7.90;5.83;;;5.50;1.00;;;;;;6105805;23;20195;-93
2022/03/07 12:31:02;;;;;;;6.40;4.90;;;5.60;1.00;;;;;;6107063;23;20147;-93
2022/03/07 12:33:28;;;;;;;6.90;5.50;;;5.80;1.00;;;;;;6108393;23;20170;-94
2022/03/07 12:36:08;;;;;;;6.10;4.90;;;5.80;1.00;;;;;;6108971;23;20682;-93
2022/03/07 12:38:55;;;;;;;8.47;4.80;;;5.80;1.00;;;;;;6112114;23;20175;-92
2022/03/07 12:41:34;;;;;;;6.73;5.10;;;5.80;1.00;;;;;;6112950;23;20147;-91
2022/03/07 12:44:00;;;;;;;6.73;5.37;;;5.80;1.00;;;;;;6112867;23;20515;-92
2022/03/07 12:46:35;;;;;;;7.33;4.80;;;6.00;1.00;;;;;;6091228;23;20167;-94
2022/03/07 12:49:04;;;;;;;5.40;4.20;;;6.00;1.00;;;;;;6107957;23;20198;-92
2022/03/07 12:51:31;;;;;;;9.07;4.93;;;6.00;1.00;;;;;;6107269;23;20156;-90
2022/03/07 12:53:59;;;;;;;6.93;4.87;;;6.10;1.00;;;;;;6103219;23;20166;-89
2022/03/07 12:56:43;;;;;;;6.27;4.97;;;6.00;1.00;;;;;;6102499;23;20168;-93
2022/03/07 12:59:09;;;;;;;7.20;4.47;;;5.90;1.00;;;;;;6102866;23;20155;-90
2022/03/07 13:01:38;;;;;;;6.17;4.60;;;5.90;1.00;;;;;;6121086;23;20140;-92
2022/03/07 13:04:19;;;;;;;6.73;4.30;;;6.00;1.00;;;;;;6111826;23;20140;-91
2022/03/07 13:06:47;;;;;;;5.53;4.47;;;5.90;1.00;;;;;;6105232;23;20175;-91